LAN186 SCEL-SCAR
Flight info
| Callsign | LAN186 |
|---|---|
| Flight time | N/A |
| Altitude | 34000 |
| Route | DONTI5B DONTI UQ802 SIRAM SIRAM2B |
| Aircraft | A321/M-SDE3FGHIRWY/LB1 |
Departure
| Time | 2026-05-04 14:19 |
|---|---|
| Airport | Comodoro Arturo Merino Benítez International Airport (SCEL) |
Arrival
| Time | N/A |
|---|---|
| Airport | Chacalluta International Airport (SCAR) |
| Time | Latitude | Longitude | Altitude | Speed | Heading |
|---|---|---|---|---|---|
| 2026-05-04 13:52 | -33.39600 | -70.79607 | 1565 ft | 0 kts | 177° |
| 2026-05-04 13:53 | -33.39599 | -70.79607 | 1565 ft | 0 kts | 177° |
| 2026-05-04 14:04 | -33.39577 | -70.79609 | 1564 ft | 2 kts | 176° |
| 2026-05-04 14:05 | -33.39531 | -70.79608 | 1564 ft | 4 kts | 211° |
| 2026-05-04 14:05 | -33.39517 | -70.79586 | 1564 ft | 4 kts | 262° |
| 2026-05-04 14:05 | -33.39516 | -70.79560 | 1564 ft | 0 kts | 267° |
| 2026-05-04 14:08 | -33.39516 | -70.79562 | 1564 ft | 2 kts | 267° |
| 2026-05-04 14:08 | -33.39518 | -70.79612 | 1564 ft | 7 kts | 268° |
| 2026-05-04 14:08 | -33.39520 | -70.79669 | 1564 ft | 7 kts | 267° |
| 2026-05-04 14:08 | -33.39522 | -70.79724 | 1564 ft | 6 kts | 266° |
| 2026-05-04 14:09 | -33.39528 | -70.79823 | 1565 ft | 6 kts | 268° |
| 2026-05-04 14:09 | -33.39529 | -70.79883 | 1565 ft | 8 kts | 268° |
| 2026-05-04 14:10 | -33.39519 | -70.80020 | 1565 ft | 9 kts | 298° |
| 2026-05-04 14:10 | -33.39449 | -70.80047 | 1566 ft | 14 kts | 355° |
| 2026-05-04 14:10 | -33.39357 | -70.80055 | 1566 ft | 13 kts | 355° |
| 2026-05-04 14:10 | -33.39272 | -70.80061 | 1566 ft | 12 kts | 358° |
| 2026-05-04 14:11 | -33.39194 | -70.80065 | 1566 ft | 11 kts | 358° |
| 2026-05-04 14:11 | -33.39043 | -70.80072 | 1567 ft | 16 kts | 358° |
| 2026-05-04 14:11 | -33.38931 | -70.80077 | 1567 ft | 16 kts | 358° |
| 2026-05-04 14:12 | -33.38826 | -70.80082 | 1567 ft | 15 kts | 357° |
| 2026-05-04 14:12 | -33.38725 | -70.80088 | 1567 ft | 14 kts | 357° |
| 2026-05-04 14:12 | -33.38542 | -70.80098 | 1567 ft | 12 kts | 357° |
| 2026-05-04 14:13 | -33.38459 | -70.80103 | 1567 ft | 12 kts | 357° |
| 2026-05-04 14:13 | -33.38379 | -70.80107 | 1566 ft | 11 kts | 358° |
| 2026-05-04 14:13 | -33.38302 | -70.80111 | 1566 ft | 11 kts | 357° |
| 2026-05-04 14:13 | -33.38230 | -70.80115 | 1566 ft | 10 kts | 357° |
| 2026-05-04 14:14 | -33.38161 | -70.80119 | 1566 ft | 11 kts | 357° |
| 2026-05-04 14:14 | -33.37940 | -70.80130 | 1566 ft | 16 kts | 358° |
| 2026-05-04 14:14 | -33.37831 | -70.80136 | 1566 ft | 15 kts | 357° |
| 2026-05-04 14:15 | -33.37641 | -70.80146 | 1566 ft | 13 kts | 357° |
| 2026-05-04 14:15 | -33.37476 | -70.80154 | 1566 ft | 11 kts | 358° |
| 2026-05-04 14:16 | -33.37338 | -70.80162 | 1567 ft | 9 kts | 357° |
| 2026-05-04 14:16 | -33.37283 | -70.80165 | 1567 ft | 7 kts | 357° |
| 2026-05-04 14:17 | -33.37151 | -70.80183 | 1567 ft | 13 kts | 336° |
| 2026-05-04 14:17 | -33.37107 | -70.80257 | 1570 ft | 9 kts | 280° |
| 2026-05-04 14:17 | -33.37174 | -70.80371 | 1574 ft | 17 kts | 189° |
| 2026-05-04 14:18 | -33.37394 | -70.80363 | 1574 ft | 63 kts | 177° |
| 2026-05-04 14:18 | -33.39229 | -70.80263 | 1628 ft | 187 kts | 176° |
| 2026-05-04 14:19 | -33.41773 | -70.80111 | 3107 ft | 186 kts | 178° |
| 2026-05-04 14:19 | -33.43119 | -70.80033 | 3248 ft | 202 kts | 178° |
| 2026-05-04 14:19 | -33.44590 | -70.79950 | 3378 ft | 221 kts | 178° |
| 2026-05-04 14:19 | -33.46200 | -70.79859 | 3484 ft | 243 kts | 178° |
| 2026-05-04 14:20 | -33.47975 | -70.79754 | 3754 ft | 264 kts | 177° |
| 2026-05-04 14:20 | -33.49835 | -70.79762 | 4346 ft | 270 kts | 192° |
| 2026-05-04 14:20 | -33.51503 | -70.80769 | 4971 ft | 274 kts | 225° |
| 2026-05-04 14:21 | -33.52588 | -70.84955 | 6254 ft | 273 kts | 287° |
| 2026-05-04 14:21 | -33.51883 | -70.87026 | 6953 ft | 272 kts | 298° |
| 2026-05-04 14:21 | -33.51062 | -70.89070 | 7671 ft | 271 kts | 298° |
| 2026-05-04 14:21 | -33.50241 | -70.91109 | 8413 ft | 272 kts | 298° |
| 2026-05-04 14:22 | -33.49412 | -70.93169 | 8885 ft | 276 kts | 298° |
| 2026-05-04 14:22 | -33.48580 | -70.95241 | 8985 ft | 275 kts | 297° |
| 2026-05-04 14:22 | -33.47581 | -70.97187 | 9005 ft | 274 kts | 311° |
| 2026-05-04 14:22 | -33.46179 | -70.98710 | 9046 ft | 276 kts | 328° |
| 2026-05-04 14:23 | -33.42600 | -71.00402 | 10257 ft | 284 kts | 341° |
| 2026-05-04 14:23 | -33.40651 | -71.01170 | 10384 ft | 305 kts | 340° |
| 2026-05-04 14:23 | -33.38569 | -71.01994 | 10504 ft | 325 kts | 340° |
| 2026-05-04 14:24 | -33.36362 | -71.02865 | 10662 ft | 342 kts | 340° |
| 2026-05-04 14:24 | -33.34078 | -71.03763 | 11029 ft | 349 kts | 340° |
| 2026-05-04 14:24 | -33.31752 | -71.04676 | 11567 ft | 353 kts | 340° |
| 2026-05-04 14:24 | -33.29408 | -71.05595 | 12168 ft | 356 kts | 340° |
| 2026-05-04 14:25 | -33.27048 | -71.06516 | 12768 ft | 359 kts | 340° |
| 2026-05-04 14:25 | -33.22279 | -71.08377 | 13872 ft | 366 kts | 339° |
| 2026-05-04 14:25 | -33.19845 | -71.09324 | 14403 ft | 369 kts | 339° |
| 2026-05-04 14:26 | -33.17393 | -71.10275 | 14923 ft | 372 kts | 339° |
| 2026-05-04 14:26 | -33.14922 | -71.11236 | 15413 ft | 374 kts | 339° |
| 2026-05-04 14:26 | -33.12438 | -71.12204 | 15899 ft | 377 kts | 338° |
| 2026-05-04 14:26 | -33.09931 | -71.13180 | 16386 ft | 380 kts | 338° |
| 2026-05-04 14:27 | -33.07410 | -71.14161 | 16896 ft | 383 kts | 338° |
| 2026-05-04 14:27 | -33.04867 | -71.15150 | 17384 ft | 386 kts | 338° |
| 2026-05-04 14:27 | -33.02306 | -71.16147 | 17848 ft | 389 kts | 337° |
| 2026-05-04 14:27 | -32.99718 | -71.17156 | 18275 ft | 392 kts | 337° |
| 2026-05-04 14:28 | -32.97118 | -71.18167 | 18681 ft | 395 kts | 338° |
| 2026-05-04 14:28 | -32.94411 | -71.18905 | 19076 ft | 403 kts | 348° |
| 2026-05-04 14:28 | -32.91586 | -71.19074 | 19484 ft | 410 kts | 354° |
| 2026-05-04 14:28 | -32.88726 | -71.19116 | 19897 ft | 412 kts | 354° |
| 2026-05-04 14:29 | -32.82962 | -71.19219 | 20678 ft | 416 kts | 353° |
| 2026-05-04 14:29 | -32.77136 | -71.19342 | 21464 ft | 420 kts | 353° |
| 2026-05-04 14:30 | -32.74241 | -71.19399 | 21824 ft | 423 kts | 353° |
| 2026-05-04 14:30 | -32.71287 | -71.19454 | 22199 ft | 425 kts | 353° |
| 2026-05-04 14:30 | -32.65345 | -71.19562 | 22969 ft | 430 kts | 353° |
| 2026-05-04 14:31 | -32.62348 | -71.19616 | 23339 ft | 432 kts | 353° |
| 2026-05-04 14:31 | -32.56308 | -71.19725 | 23984 ft | 436 kts | 353° |
| 2026-05-04 14:32 | -32.50219 | -71.19835 | 24576 ft | 439 kts | 353° |
| 2026-05-04 14:32 | -32.47154 | -71.19893 | 24855 ft | 441 kts | 353° |
| 2026-05-04 14:32 | -32.44076 | -71.19950 | 25136 ft | 443 kts | 353° |
| 2026-05-04 14:32 | -32.40977 | -71.20006 | 25435 ft | 445 kts | 353° |
| 2026-05-04 14:33 | -32.37867 | -71.20061 | 25739 ft | 447 kts | 353° |
| 2026-05-04 14:33 | -32.34753 | -71.20121 | 25942 ft | 448 kts | 353° |
| 2026-05-04 14:33 | -32.31624 | -71.20177 | 26205 ft | 450 kts | 353° |
| 2026-05-04 14:33 | -32.28483 | -71.20231 | 26480 ft | 452 kts | 353° |
| 2026-05-04 14:34 | -32.25370 | -71.20286 | 26728 ft | 454 kts | 353° |
| 2026-05-04 14:34 | -32.22203 | -71.20344 | 26998 ft | 455 kts | 353° |
| 2026-05-04 14:34 | -32.19030 | -71.20404 | 27274 ft | 457 kts | 352° |
| 2026-05-04 14:34 | -32.15847 | -71.20464 | 27544 ft | 459 kts | 352° |
| 2026-05-04 14:35 | -32.12649 | -71.20523 | 27825 ft | 460 kts | 352° |
| 2026-05-04 14:35 | -32.10524 | -71.20562 | 27999 ft | 462 kts | 352° |
| 2026-05-04 14:35 | -32.07306 | -71.20620 | 28252 ft | 463 kts | 352° |
| 2026-05-04 14:35 | -32.04077 | -71.20679 | 28515 ft | 465 kts | 352° |
| 2026-05-04 14:36 | -32.00838 | -71.20737 | 28779 ft | 466 kts | 352° |
| 2026-05-04 14:36 | -31.97593 | -71.20792 | 29102 ft | 465 kts | 352° |
| 2026-05-04 14:36 | -31.94360 | -71.20846 | 29427 ft | 463 kts | 352° |
| 2026-05-04 14:36 | -31.91137 | -71.20902 | 29727 ft | 463 kts | 352° |
| 2026-05-04 14:37 | -31.87921 | -71.20958 | 30053 ft | 462 kts | 352° |
| 2026-05-04 14:37 | -31.84707 | -71.21017 | 30348 ft | 461 kts | 352° |
| 2026-05-04 14:37 | -31.81500 | -71.21074 | 30611 ft | 460 kts | 352° |
| 2026-05-04 14:37 | -31.78298 | -71.21130 | 30867 ft | 459 kts | 352° |
| 2026-05-04 14:38 | -31.75096 | -71.21100 | 31106 ft | 460 kts | 354° |
| 2026-05-04 14:38 | -31.71932 | -71.20951 | 31361 ft | 461 kts | 355° |
| 2026-05-04 14:38 | -31.68726 | -71.20721 | 31660 ft | 461 kts | 356° |
| 2026-05-04 14:38 | -31.65524 | -71.20461 | 31969 ft | 460 kts | 356° |
| 2026-05-04 14:39 | -31.62342 | -71.20206 | 32278 ft | 458 kts | 356° |
| 2026-05-04 14:39 | -31.59159 | -71.19972 | 32585 ft | 457 kts | 355° |
| 2026-05-04 14:39 | -31.55986 | -71.19764 | 32870 ft | 456 kts | 355° |
| 2026-05-04 14:40 | -31.49667 | -71.19392 | 33487 ft | 453 kts | 355° |
| 2026-05-04 14:40 | -31.46526 | -71.19214 | 33764 ft | 452 kts | 355° |
| 2026-05-04 14:40 | -31.43383 | -71.19034 | 33999 ft | 452 kts | 355° |
| 2026-05-04 14:40 | -31.40245 | -71.18849 | 34059 ft | 449 kts | 355° |
| 2026-05-04 14:41 | -31.34022 | -71.18471 | 34063 ft | 447 kts | 355° |
| 2026-05-04 14:42 | -31.21633 | -71.17722 | 34056 ft | 446 kts | 355° |
| 2026-05-04 14:42 | -31.15417 | -71.17348 | 34057 ft | 447 kts | 355° |
| 2026-05-04 14:43 | -31.09200 | -71.16977 | 34047 ft | 447 kts | 355° |
| 2026-05-04 14:43 | -31.02977 | -71.16599 | 34043 ft | 447 kts | 355° |
| 2026-05-04 14:44 | -30.96754 | -71.16220 | 34042 ft | 447 kts | 355° |
| 2026-05-04 14:44 | -30.90537 | -71.15845 | 34019 ft | 448 kts | 354° |
| 2026-05-04 14:45 | -30.84347 | -71.15476 | 34025 ft | 448 kts | 354° |
| 2026-05-04 14:45 | -30.78104 | -71.15095 | 34029 ft | 449 kts | 355° |
| 2026-05-04 14:46 | -30.71861 | -71.14716 | 34031 ft | 449 kts | 354° |
| 2026-05-04 14:46 | -30.65616 | -71.14340 | 34004 ft | 449 kts | 354° |
| 2026-05-04 14:47 | -30.59377 | -71.13975 | 34027 ft | 449 kts | 354° |
| 2026-05-04 14:47 | -30.53125 | -71.13616 | 34031 ft | 450 kts | 354° |
| 2026-05-04 14:48 | -30.46867 | -71.13239 | 34036 ft | 450 kts | 354° |
| 2026-05-04 14:48 | -30.40640 | -71.12860 | 34041 ft | 450 kts | 354° |
| 2026-05-04 14:49 | -30.34380 | -71.12492 | 34019 ft | 450 kts | 354° |
| 2026-05-04 14:49 | -30.28112 | -71.12131 | 34030 ft | 451 kts | 354° |
| 2026-05-04 14:50 | -30.21836 | -71.11729 | 34036 ft | 453 kts | 356° |
| 2026-05-04 14:50 | -30.15538 | -71.11063 | 34044 ft | 455 kts | 357° |
| 2026-05-04 14:51 | -30.09228 | -71.10297 | 34024 ft | 455 kts | 357° |
| 2026-05-04 14:51 | -30.02926 | -71.09580 | 34035 ft | 455 kts | 357° |
| 2026-05-04 14:52 | -29.96609 | -71.08908 | 34039 ft | 455 kts | 356° |
| 2026-05-04 14:52 | -29.90329 | -71.08251 | 34038 ft | 455 kts | 356° |
| 2026-05-04 14:53 | -29.84018 | -71.07579 | 34039 ft | 456 kts | 357° |
| 2026-05-04 14:53 | -29.77703 | -71.06906 | 34046 ft | 456 kts | 356° |
| 2026-05-04 14:54 | -29.71379 | -71.06234 | 34045 ft | 456 kts | 357° |
| 2026-05-04 14:54 | -29.65061 | -71.05560 | 34047 ft | 456 kts | 356° |
| 2026-05-04 14:55 | -29.58741 | -71.04879 | 34046 ft | 456 kts | 357° |
| 2026-05-04 14:55 | -29.52421 | -71.04200 | 34031 ft | 456 kts | 357° |
| 2026-05-04 14:56 | -29.46146 | -71.03534 | 34035 ft | 455 kts | 357° |
| 2026-05-04 14:56 | -29.39821 | -71.02726 | 34048 ft | 459 kts | 359° |
| 2026-05-04 14:57 | -29.33496 | -71.01683 | 34049 ft | 459 kts | 360° |
| 2026-05-04 14:57 | -29.27166 | -71.00620 | 34023 ft | 459 kts | 360° |
| 2026-05-04 14:58 | -29.20846 | -70.99842 | 34026 ft | 455 kts | 356° |
| 2026-05-04 14:58 | -29.14533 | -70.99344 | 34031 ft | 454 kts | 355° |
| 2026-05-04 14:59 | -29.08264 | -70.98851 | 34028 ft | 455 kts | 356° |
| 2026-05-04 15:00 | -28.98794 | -70.97966 | 34010 ft | 456 kts | 356° |
| 2026-05-04 15:00 | -28.92476 | -70.97352 | 34019 ft | 455 kts | 356° |
| 2026-05-04 15:01 | -28.83003 | -70.96456 | 34026 ft | 455 kts | 356° |
| 2026-05-04 15:01 | -28.76682 | -70.95872 | 34033 ft | 455 kts | 356° |
| 2026-05-04 15:02 | -28.70364 | -70.95294 | 34006 ft | 455 kts | 356° |
| 2026-05-04 15:02 | -28.64053 | -70.94706 | 34022 ft | 456 kts | 356° |
| 2026-05-04 15:03 | -28.57724 | -70.94109 | 34034 ft | 456 kts | 356° |
| 2026-05-04 15:03 | -28.51404 | -70.93508 | 34042 ft | 455 kts | 356° |
| 2026-05-04 15:04 | -28.45134 | -70.92902 | 34031 ft | 456 kts | 357° |
| 2026-05-04 15:04 | -28.38806 | -70.92244 | 34040 ft | 456 kts | 357° |
| 2026-05-04 15:05 | -28.32488 | -70.91578 | 34048 ft | 456 kts | 357° |
| 2026-05-04 15:05 | -28.26168 | -70.90914 | 34064 ft | 455 kts | 357° |
| 2026-05-04 15:06 | -28.19860 | -70.90246 | 34054 ft | 455 kts | 358° |
| 2026-05-04 15:07 | -28.10435 | -70.89234 | 34040 ft | 455 kts | 358° |
| 2026-05-04 15:07 | -28.04126 | -70.88566 | 34043 ft | 455 kts | 358° |
| 2026-05-04 15:08 | -27.97818 | -70.87895 | 34044 ft | 455 kts | 358° |
| 2026-05-04 15:08 | -27.91503 | -70.87223 | 34045 ft | 455 kts | 358° |
| 2026-05-04 15:09 | -27.85191 | -70.86550 | 34026 ft | 456 kts | 358° |
| 2026-05-04 15:09 | -27.78873 | -70.85886 | 34036 ft | 456 kts | 358° |
| 2026-05-04 15:10 | -27.69383 | -70.84888 | 34047 ft | 456 kts | 358° |
| 2026-05-04 15:11 | -27.59936 | -70.83884 | 34050 ft | 456 kts | 358° |
| 2026-05-04 15:11 | -27.53611 | -70.83213 | 34045 ft | 456 kts | 358° |
| 2026-05-04 15:12 | -27.47277 | -70.82547 | 34046 ft | 456 kts | 358° |
| 2026-05-04 15:12 | -27.40936 | -70.81888 | 34041 ft | 457 kts | 358° |
| 2026-05-04 15:13 | -27.34641 | -70.81227 | 34034 ft | 457 kts | 358° |
| 2026-05-04 15:13 | -27.28325 | -70.80559 | 34026 ft | 457 kts | 358° |
| 2026-05-04 15:14 | -27.21963 | -70.79890 | 34029 ft | 457 kts | 358° |
| 2026-05-04 15:14 | -27.15666 | -70.79232 | 34035 ft | 457 kts | 358° |
| 2026-05-04 15:15 | -27.09343 | -70.78573 | 34038 ft | 457 kts | 358° |
| 2026-05-04 15:15 | -27.03015 | -70.77915 | 34042 ft | 457 kts | 357° |
| 2026-05-04 15:16 | -26.93522 | -70.76930 | 34045 ft | 457 kts | 358° |
| 2026-05-04 15:17 | -26.84018 | -70.75934 | 34044 ft | 457 kts | 358° |
| 2026-05-04 15:17 | -26.74500 | -70.74945 | 34044 ft | 457 kts | 358° |
| 2026-05-04 15:18 | -26.68188 | -70.74288 | 34018 ft | 457 kts | 358° |
| 2026-05-04 15:19 | -26.58721 | -70.72910 | 34028 ft | 461 kts | 1° |
| 2026-05-04 15:19 | -26.49208 | -70.71137 | 34033 ft | 462 kts | 1° |
| 2026-05-04 15:20 | -26.42856 | -70.70070 | 34020 ft | 459 kts | 359° |
| 2026-05-04 15:20 | -26.36519 | -70.69457 | 34026 ft | 456 kts | 355° |
| 2026-05-04 15:21 | -26.30185 | -70.69045 | 34029 ft | 456 kts | 355° |
| 2026-05-04 15:22 | -26.20681 | -70.68284 | 34032 ft | 457 kts | 357° |
| 2026-05-04 15:22 | -26.11175 | -70.67420 | 34015 ft | 457 kts | 357° |
| 2026-05-04 15:23 | -26.04863 | -70.66854 | 34026 ft | 458 kts | 356° |
| 2026-05-04 15:23 | -25.98510 | -70.66298 | 34031 ft | 458 kts | 356° |
| 2026-05-04 15:24 | -25.86863 | -70.65294 | 34039 ft | 458 kts | 356° |
| 2026-05-04 15:25 | -25.80505 | -70.64747 | 34028 ft | 458 kts | 356° |
| 2026-05-04 15:26 | -25.70961 | -70.63908 | 34034 ft | 459 kts | 356° |
| 2026-05-04 15:26 | -25.61409 | -70.63073 | 34038 ft | 459 kts | 356° |
| 2026-05-04 15:27 | -25.51863 | -70.62246 | 34024 ft | 459 kts | 356° |
| 2026-05-04 15:28 | -25.42315 | -70.61418 | 34033 ft | 459 kts | 356° |
| 2026-05-04 15:29 | -25.32766 | -70.60581 | 34034 ft | 459 kts | 356° |
| 2026-05-04 15:30 | -25.10526 | -70.58682 | 34030 ft | 459 kts | 356° |
| 2026-05-04 15:31 | -25.00972 | -70.57848 | 34029 ft | 459 kts | 356° |
| 2026-05-04 15:32 | -24.85043 | -70.56491 | 34019 ft | 459 kts | 356° |
| 2026-05-04 15:34 | -24.69190 | -70.55991 | 34021 ft | 453 kts | 351° |
| 2026-05-04 15:34 | -24.59776 | -70.56215 | 34006 ft | 453 kts | 351° |
| 2026-05-04 15:35 | -24.50306 | -70.56253 | 34012 ft | 454 kts | 352° |
| 2026-05-04 15:36 | -24.40840 | -70.56283 | 34017 ft | 453 kts | 352° |
| 2026-05-04 15:36 | -24.34539 | -70.56327 | 34004 ft | 453 kts | 352° |
| 2026-05-04 15:37 | -24.28238 | -70.56376 | 34013 ft | 452 kts | 352° |
| 2026-05-04 15:37 | -24.21942 | -70.56414 | 34021 ft | 452 kts | 352° |
| 2026-05-04 15:38 | -24.15643 | -70.56450 | 34022 ft | 452 kts | 352° |
| 2026-05-04 15:38 | -24.09356 | -70.56489 | 34017 ft | 452 kts | 352° |
| 2026-05-04 15:39 | -24.03066 | -70.56529 | 34017 ft | 452 kts | 352° |
| 2026-05-04 15:40 | -23.93624 | -70.56585 | 34020 ft | 451 kts | 352° |
| 2026-05-04 15:40 | -23.87341 | -70.56626 | 34019 ft | 451 kts | 352° |
| 2026-05-04 15:41 | -23.81096 | -70.56658 | 34018 ft | 451 kts | 352° |
| 2026-05-04 15:41 | -23.74811 | -70.56673 | 34002 ft | 452 kts | 352° |
| 2026-05-04 15:42 | -23.68527 | -70.56632 | 34022 ft | 451 kts | 353° |
| 2026-05-04 15:42 | -23.62251 | -70.56591 | 34029 ft | 450 kts | 352° |
| 2026-05-04 15:43 | -23.55986 | -70.56564 | 34032 ft | 450 kts | 352° |
| 2026-05-04 15:43 | -23.49730 | -70.56540 | 34029 ft | 449 kts | 353° |
| 2026-05-04 15:44 | -23.43476 | -70.56508 | 34011 ft | 450 kts | 353° |
| 2026-05-04 15:44 | -23.37221 | -70.56481 | 34025 ft | 449 kts | 353° |
| 2026-05-04 15:45 | -23.30977 | -70.56459 | 34027 ft | 448 kts | 353° |
| 2026-05-04 15:45 | -23.24746 | -70.56433 | 34025 ft | 448 kts | 353° |
| 2026-05-04 15:46 | -23.18551 | -70.56407 | 34022 ft | 448 kts | 353° |
| 2026-05-04 15:46 | -23.12324 | -70.56381 | 34014 ft | 448 kts | 353° |
| 2026-05-04 15:47 | -23.06097 | -70.56355 | 34014 ft | 447 kts | 353° |
| 2026-05-04 15:47 | -22.99883 | -70.56328 | 34026 ft | 446 kts | 353° |
| 2026-05-04 15:48 | -22.93670 | -70.56302 | 34027 ft | 446 kts | 353° |
| 2026-05-04 15:48 | -22.84353 | -70.56230 | 34018 ft | 447 kts | 353° |
| 2026-05-04 15:49 | -22.78134 | -70.56096 | 34028 ft | 446 kts | 354° |
| 2026-05-04 15:49 | -22.71931 | -70.55951 | 34031 ft | 445 kts | 354° |
| 2026-05-04 15:50 | -22.65744 | -70.55830 | 34034 ft | 444 kts | 354° |
| 2026-05-04 15:50 | -22.59562 | -70.55718 | 34031 ft | 444 kts | 354° |
| 2026-05-04 15:51 | -22.53421 | -70.55597 | 34037 ft | 444 kts | 354° |
| 2026-05-04 15:51 | -22.47244 | -70.55480 | 34026 ft | 444 kts | 354° |
| 2026-05-04 15:52 | -22.41074 | -70.55369 | 34020 ft | 443 kts | 354° |
| 2026-05-04 15:52 | -22.34903 | -70.55262 | 34028 ft | 443 kts | 354° |
| 2026-05-04 15:53 | -22.28730 | -70.55141 | 34024 ft | 444 kts | 354° |
| 2026-05-04 15:53 | -22.22556 | -70.55016 | 34023 ft | 444 kts | 354° |
| 2026-05-04 15:54 | -22.16382 | -70.54898 | 34010 ft | 444 kts | 354° |
| 2026-05-04 15:54 | -22.10199 | -70.54789 | 34014 ft | 445 kts | 354° |
| 2026-05-04 15:55 | -22.04008 | -70.54676 | 34016 ft | 445 kts | 354° |
| 2026-05-04 15:55 | -21.97802 | -70.54559 | 34017 ft | 445 kts | 354° |
| 2026-05-04 15:56 | -21.91617 | -70.54444 | 34020 ft | 445 kts | 354° |
| 2026-05-04 15:56 | -21.85450 | -70.54345 | 34012 ft | 445 kts | 354° |
| 2026-05-04 15:57 | -21.79260 | -70.54310 | 34013 ft | 446 kts | 354° |
| 2026-05-04 15:57 | -21.73048 | -70.54290 | 34016 ft | 446 kts | 354° |
| 2026-05-04 15:58 | -21.66829 | -70.54259 | 34018 ft | 446 kts | 354° |
| 2026-05-04 15:58 | -21.60649 | -70.54225 | 34021 ft | 446 kts | 354° |
| 2026-05-04 15:59 | -21.54423 | -70.54183 | 34017 ft | 446 kts | 355° |
| 2026-05-04 15:59 | -21.48219 | -70.54148 | 34021 ft | 446 kts | 355° |
| 2026-05-04 16:00 | -21.42028 | -70.54114 | 34024 ft | 446 kts | 355° |
| 2026-05-04 16:00 | -21.35813 | -70.54081 | 34027 ft | 446 kts | 355° |
| 2026-05-04 16:01 | -21.29634 | -70.54041 | 34025 ft | 446 kts | 355° |
| 2026-05-04 16:01 | -21.23432 | -70.54009 | 34017 ft | 446 kts | 355° |
| 2026-05-04 16:02 | -21.17226 | -70.53975 | 34011 ft | 446 kts | 355° |
| 2026-05-04 16:03 | -21.07908 | -70.53918 | 34020 ft | 446 kts | 355° |
| 2026-05-04 16:03 | -21.01707 | -70.53887 | 34023 ft | 446 kts | 355° |
| 2026-05-04 16:04 | -20.95491 | -70.53855 | 34020 ft | 446 kts | 355° |
| 2026-05-04 16:04 | -20.86190 | -70.53804 | 34022 ft | 446 kts | 355° |
| 2026-05-04 16:05 | -20.80002 | -70.53762 | 34026 ft | 446 kts | 355° |
| 2026-05-04 16:06 | -20.70726 | -70.53707 | 34024 ft | 446 kts | 355° |
| 2026-05-04 16:07 | -20.58335 | -70.53644 | 34035 ft | 445 kts | 355° |
| 2026-05-04 16:08 | -20.45965 | -70.53571 | 34039 ft | 444 kts | 355° |
| 2026-05-04 16:09 | -20.30537 | -70.53482 | 34029 ft | 444 kts | 355° |
| 2026-05-04 16:10 | -20.19206 | -70.53411 | 34034 ft | 443 kts | 355° |
| 2026-05-04 16:11 | -20.05846 | -70.53334 | 34005 ft | 444 kts | 355° |
| 2026-05-04 16:12 | -19.88409 | -70.54616 | 34017 ft | 443 kts | 349° |
| 2026-05-04 16:13 | -19.76172 | -70.56133 | 34019 ft | 443 kts | 349° |
| 2026-05-04 16:14 | -19.63918 | -70.57657 | 34013 ft | 443 kts | 349° |
| 2026-05-04 16:16 | -19.48592 | -70.59546 | 34016 ft | 444 kts | 349° |
| 2026-05-04 16:17 | -19.33284 | -70.61483 | 34013 ft | 444 kts | 349° |
| 2026-05-04 16:18 | -19.21041 | -70.63082 | 34014 ft | 444 kts | 349° |
| 2026-05-04 16:19 | -19.05739 | -70.65089 | 34007 ft | 444 kts | 349° |
| 2026-05-04 16:20 | -18.90410 | -70.67137 | 34011 ft | 444 kts | 349° |
| 2026-05-04 16:22 | -18.75053 | -70.69199 | 34005 ft | 444 kts | 349° |
| 2026-05-04 16:23 | -18.56703 | -70.71699 | 34007 ft | 445 kts | 349° |
| 2026-05-04 16:25 | -18.38346 | -70.74469 | 34003 ft | 439 kts | 336° |
| 2026-05-04 16:26 | -18.31841 | -70.84086 | 33972 ft | 428 kts | 271° |
| 2026-05-04 16:26 | -18.35581 | -70.92458 | 31804 ft | 452 kts | 222° |
| 2026-05-04 16:27 | -18.41422 | -70.95109 | 30194 ft | 471 kts | 194° |
| 2026-05-04 16:28 | -18.51059 | -70.97049 | 28282 ft | 463 kts | 193° |
| 2026-05-04 16:28 | -18.60421 | -70.98966 | 26668 ft | 450 kts | 193° |
| 2026-05-04 16:29 | -18.72410 | -71.01595 | 23959 ft | 428 kts | 193° |
| 2026-05-04 16:30 | -18.81012 | -71.02868 | 21714 ft | 414 kts | 171° |
| 2026-05-04 16:31 | -18.86207 | -71.00438 | 20934 ft | 411 kts | 140° |
| 2026-05-04 16:31 | -18.89846 | -70.92484 | 18370 ft | 401 kts | 102° |
| 2026-05-04 16:32 | -18.91591 | -70.84266 | 16940 ft | 364 kts | 103° |
| 2026-05-04 16:33 | -18.92692 | -70.79218 | 16063 ft | 350 kts | 103° |
| 2026-05-04 16:33 | -18.93752 | -70.74244 | 15190 ft | 345 kts | 103° |
| 2026-05-04 16:34 | -18.94786 | -70.69343 | 14313 ft | 339 kts | 103° |
| 2026-05-04 16:34 | -18.95296 | -70.66926 | 13882 ft | 336 kts | 103° |
| 2026-05-04 16:35 | -18.96794 | -70.59782 | 12527 ft | 329 kts | 103° |
| 2026-05-04 16:35 | -18.97362 | -70.52712 | 11216 ft | 327 kts | 72° |